createdAt,value
2022-08-19T10:42:40.080Z,101363.05
2022-08-19T10:43:40.834Z,101364.20
2022-08-19T10:44:44.378Z,101364.20
2022-08-19T10:45:52.473Z,101363.67
2022-08-19T10:46:47.143Z,101363.46
2022-08-19T10:47:43.621Z,101363.84
2022-08-19T10:48:44.972Z,101363.41
2022-08-19T10:49:44.661Z,101363.27
2022-08-19T10:50:45.463Z,101363.58
2022-08-19T10:51:47.998Z,101363.51
2022-08-19T10:52:49.739Z,101363.51
2022-08-19T10:53:46.915Z,101363.30
2022-08-19T10:54:47.693Z,101362.49
2022-08-19T10:55:48.212Z,101361.27
2022-08-19T10:56:48.249Z,101360.95
2022-08-19T10:58:04.053Z,101360.45
2022-08-19T10:58:48.980Z,101359.76
2022-08-19T10:59:49.193Z,101359.37
2022-08-19T11:00:50.251Z,101359.47
2022-08-19T11:01:50.943Z,101358.73
2022-08-19T11:02:51.359Z,101358.39
2022-08-19T11:03:53.293Z,101357.50
2022-08-19T11:04:52.539Z,101357.89
2022-08-19T11:05:52.569Z,101358.13
2022-08-19T11:06:53.826Z,101357.95
2022-08-19T11:07:03.039Z,101348.31
2022-08-19T11:08:03.079Z,101350.61
2022-08-19T11:09:03.869Z,101350.50
2022-08-19T11:10:05.186Z,101350.59
2022-08-19T11:11:04.974Z,101350.00
2022-08-19T11:12:05.688Z,101349.81
2022-08-19T11:13:06.621Z,101349.31
2022-08-19T11:14:07.205Z,101348.09
2022-08-19T11:15:07.440Z,101347.67
2022-08-19T11:16:08.991Z,101346.83
2022-08-19T11:17:08.601Z,101346.30
2022-08-19T11:18:13.456Z,101345.33
2022-08-19T11:19:09.910Z,101345.18
2022-08-19T11:20:10.357Z,101344.66
2022-08-19T11:21:11.193Z,101343.91
2022-08-19T11:22:12.104Z,101342.82
2022-08-19T11:23:13.079Z,101342.22
2022-08-19T11:24:14.043Z,101340.89
2022-08-19T11:25:14.716Z,101340.01
2022-08-19T11:26:16.227Z,101339.44
2022-08-19T11:27:16.162Z,101338.56
2022-08-19T11:28:18.101Z,101338.34
2022-08-19T11:28:27.381Z,101336.67
2022-08-19T11:29:28.081Z,101337.03
2022-08-19T11:30:29.182Z,101335.76
2022-08-19T11:31:28.892Z,101334.52
2022-08-19T11:32:28.592Z,101333.55
2022-08-19T11:33:29.680Z,101332.48
2022-08-19T11:34:29.991Z,101331.84
2022-08-19T11:35:30.311Z,101330.39
2022-08-19T11:36:30.504Z,101329.36
2022-08-19T11:37:30.737Z,101328.48
2022-08-19T11:38:31.118Z,101327.50
2022-08-19T11:39:30.521Z,101326.36
2022-08-19T11:41:20.275Z,101313.31
2022-08-19T11:42:17.446Z,101308.31
2022-08-19T11:43:17.589Z,101308.42
2022-08-19T11:44:17.744Z,101308.08
2022-08-19T11:45:18.343Z,101308.13
2022-08-19T11:46:18.452Z,101308.53
2022-08-19T11:47:19.741Z,101309.46
2022-08-19T11:48:18.997Z,101309.53
2022-08-19T11:49:19.572Z,101309.64
2022-08-19T11:50:20.916Z,101309.46
2022-08-19T11:51:23.573Z,101309.36
2022-08-19T11:53:02.705Z,101309.28
2022-08-19T11:53:21.495Z,101309.13
2022-08-19T11:54:22.876Z,101308.67
2022-08-19T11:55:22.069Z,101308.20
2022-08-19T11:56:22.970Z,101306.97
2022-08-19T11:57:23.898Z,101306.41
2022-08-19T11:58:24.188Z,101305.53
2022-08-19T11:59:24.968Z,101304.92
2022-08-19T12:00:24.920Z,101304.63
2022-08-19T12:01:25.135Z,101304.30
2022-08-19T12:02:26.573Z,101303.66
2022-08-19T12:03:26.591Z,101302.88
2022-08-19T12:03:35.714Z,101305.00
2022-08-19T12:04:36.070Z,101303.73
2022-08-19T12:05:37.878Z,101303.84
2022-08-19T12:06:37.205Z,101304.16
2022-08-19T12:07:38.790Z,101304.84
2022-08-19T12:08:39.684Z,101304.67
2022-08-19T12:09:42.731Z,101304.90
2022-08-19T12:10:39.119Z,101305.08
2022-08-19T12:11:40.475Z,101305.72
2022-08-19T12:12:40.715Z,101305.83
2022-08-19T12:13:41.653Z,101305.70
2022-08-19T12:14:41.470Z,101306.36
2022-08-19T12:15:41.490Z,101305.38
2022-08-19T12:16:44.727Z,101304.14
2022-08-19T12:17:42.446Z,101303.61
2022-08-19T12:18:43.183Z,101303.31
2022-08-19T12:19:43.498Z,101303.56
2022-08-19T12:20:44.013Z,101303.22
2022-08-19T12:21:44.845Z,101302.56
2022-08-19T12:22:46.448Z,101301.98
2022-08-19T12:23:46.581Z,101302.13
2022-08-19T12:24:45.935Z,101301.63
2022-08-19T12:25:47.379Z,101300.47
2022-08-19T12:26:53.193Z,101299.83
2022-08-19T12:27:56.796Z,101299.74
2022-08-19T12:28:47.978Z,101299.33
2022-08-19T12:28:57.217Z,101291.55
2022-08-19T12:29:57.879Z,101290.74
2022-08-19T12:30:59.174Z,101290.67
2022-08-19T12:31:58.793Z,101290.16
2022-08-19T12:32:59.532Z,101290.73
2022-08-19T12:33:59.950Z,101291.31
2022-08-19T12:35:00.186Z,101291.73
2022-08-19T12:36:01.115Z,101291.02
2022-08-19T12:37:02.424Z,101291.20
2022-08-19T12:38:02.851Z,101290.73
2022-08-19T12:39:02.519Z,101290.38
2022-08-19T12:40:02.500Z,101289.70
2022-08-19T12:41:03.272Z,101289.06
2022-08-19T12:42:05.015Z,101288.12
2022-08-19T12:43:04.337Z,101288.08
2022-08-19T12:44:04.577Z,101287.38
2022-08-19T12:45:04.905Z,101286.92
2022-08-19T12:46:05.101Z,101286.60
2022-08-19T12:47:05.773Z,101286.52
2022-08-19T12:48:31.312Z,101286.25
2022-08-19T12:49:31.431Z,101286.08
2022-08-19T12:50:07.074Z,101285.67
2022-08-19T12:51:07.836Z,101284.95
2022-08-19T12:52:08.266Z,101284.17
2022-08-19T12:53:08.943Z,101283.55
2022-08-19T12:54:10.234Z,101282.66
2022-08-19T12:55:11.242Z,101282.51
2022-08-19T12:56:12.757Z,101281.73
2022-08-19T12:56:23.140Z,101271.44
2022-08-19T12:57:21.277Z,101269.38
2022-08-19T12:58:25.445Z,101268.95
2022-08-19T12:59:21.999Z,101268.90
2022-08-19T13:00:22.591Z,101268.69
2022-08-19T13:01:23.579Z,101268.05
2022-08-19T13:02:24.381Z,101267.94
2022-08-19T13:03:25.165Z,101267.53
2022-08-19T13:04:25.247Z,101267.36
2022-08-19T13:05:27.149Z,101267.29
2022-08-19T13:06:26.452Z,101267.18
2022-08-19T13:07:28.368Z,101266.56
2022-08-19T13:08:31.780Z,101266.67
2022-08-19T13:09:28.482Z,101266.44
2022-08-19T13:10:29.072Z,101266.33
2022-08-19T13:11:29.445Z,101265.97
2022-08-19T13:12:29.658Z,101265.74
2022-08-19T13:13:30.733Z,101265.02
2022-08-19T13:14:31.088Z,101264.66
2022-08-19T13:15:32.147Z,101263.19
2022-08-19T13:16:31.473Z,101262.28
2022-08-19T13:17:32.805Z,101261.32
2022-08-19T13:18:32.196Z,101260.75
2022-08-19T13:18:40.933Z,101254.76
2022-08-19T13:19:41.496Z,101256.28
2022-08-19T13:20:42.527Z,101255.34
2022-08-19T13:21:41.572Z,101254.59
2022-08-19T13:22:42.115Z,101253.84
2022-08-19T13:23:42.683Z,101252.86
2022-08-19T13:24:47.275Z,101252.27
2022-08-19T13:25:43.309Z,101251.52
2022-08-19T13:26:43.838Z,101251.11
2022-08-19T13:27:45.095Z,101250.70
2022-08-19T13:28:45.677Z,101250.27
2022-08-19T13:29:45.772Z,101250.05
2022-08-19T13:30:45.957Z,101249.66
2022-08-19T13:31:46.425Z,101248.59
2022-08-19T13:32:46.728Z,101247.53
2022-08-19T13:33:47.166Z,101247.07
2022-08-19T13:34:47.752Z,101246.56
2022-08-19T13:35:47.843Z,101246.31
2022-08-19T13:38:19.930Z,101240.45
2022-08-19T13:39:20.397Z,101241.95
2022-08-19T13:40:22.394Z,101241.66
2022-08-19T13:41:22.734Z,101241.61
2022-08-19T13:42:21.750Z,101241.61
2022-08-19T13:43:23.928Z,101241.21
2022-08-19T13:44:22.836Z,101241.61
2022-08-19T13:45:24.039Z,101242.03
2022-08-19T13:46:23.909Z,101242.38
2022-08-19T13:47:25.417Z,101243.36
2022-08-19T13:48:25.551Z,101243.30
2022-08-19T13:49:25.315Z,101243.70
2022-08-19T13:50:27.035Z,101243.77
2022-08-19T13:51:26.694Z,101244.17
2022-08-19T13:52:26.870Z,101244.29
2022-08-19T13:53:28.439Z,101244.45
2022-08-19T13:54:28.364Z,101245.36
2022-08-19T13:55:29.733Z,101246.19
2022-08-19T13:56:30.494Z,101246.52
2022-08-19T13:57:29.778Z,101246.70
2022-08-19T13:58:31.012Z,101247.10
2022-08-19T13:58:39.767Z,101258.34
2022-08-19T13:59:40.600Z,101251.94
2022-08-19T14:00:41.818Z,101251.76
2022-08-19T14:01:41.330Z,101251.84
2022-08-19T14:02:42.727Z,101251.42
2022-08-19T14:03:43.635Z,101251.39
2022-08-19T14:04:43.954Z,101251.91
2022-08-19T14:05:43.042Z,101252.40
2022-08-19T14:06:44.991Z,101251.92
2022-08-19T14:07:44.588Z,101251.39
2022-08-19T14:08:46.572Z,101250.71
2022-08-19T14:09:45.661Z,101249.67
2022-08-19T14:10:46.209Z,101248.62
2022-08-19T14:11:47.943Z,101247.92
2022-08-19T14:12:47.768Z,101246.98
2022-08-19T14:13:48.077Z,101246.29
2022-08-19T14:14:48.235Z,101246.28
2022-08-19T14:15:49.170Z,101246.83
2022-08-19T14:16:50.393Z,101246.83
2022-08-19T14:17:49.562Z,101247.34
2022-08-19T14:18:50.155Z,101247.37
2022-08-19T14:19:51.419Z,101247.81
2022-08-19T14:20:50.495Z,101247.34
2022-08-19T14:21:51.292Z,101247.57
2022-08-19T14:22:00.107Z,101256.18
2022-08-19T14:23:00.414Z,101250.14
2022-08-19T14:24:01.152Z,101250.48
2022-08-19T14:25:02.862Z,101250.45
2022-08-19T14:26:03.575Z,101250.61
2022-08-19T14:27:02.183Z,101250.70
2022-08-19T14:28:03.384Z,101250.98
2022-08-19T14:29:04.235Z,101250.98
2022-08-19T14:30:03.657Z,101250.70
2022-08-19T14:31:03.493Z,101250.48
2022-08-19T14:32:04.354Z,101249.95
2022-08-19T14:33:05.017Z,101249.16
2022-08-19T14:34:05.438Z,101249.23
2022-08-19T14:35:06.594Z,101248.33
2022-08-19T14:36:06.075Z,101247.85
2022-08-19T14:37:06.260Z,101247.73
2022-08-19T14:38:06.932Z,101247.16
2022-08-19T14:39:08.224Z,101246.08
2022-08-19T14:40:07.343Z,101245.25
2022-08-19T14:41:07.483Z,101244.39
2022-08-19T14:42:11.296Z,101244.03
2022-08-19T14:43:08.395Z,101242.83
2022-08-19T14:44:09.084Z,101242.02
2022-08-19T14:45:09.991Z,101241.74
2022-08-19T14:46:10.959Z,101241.31
2022-08-19T14:47:11.025Z,101240.34
2022-08-19T14:48:12.517Z,101240.50
2022-08-19T14:48:20.380Z,101243.24
2022-08-19T14:49:19.722Z,101244.41
2022-08-19T14:50:20.174Z,101243.47
2022-08-19T14:51:21.839Z,101242.19
2022-08-19T14:52:21.133Z,101241.84
2022-08-19T14:53:21.413Z,101241.28
2022-08-19T14:54:23.257Z,101241.19
2022-08-19T14:55:22.935Z,101240.44
2022-08-19T14:56:23.512Z,101240.89
2022-08-19T14:57:23.964Z,101240.78
2022-08-19T14:58:29.621Z,101241.11
2022-08-19T14:59:24.435Z,101241.01
2022-08-19T15:00:25.365Z,101241.23
2022-08-19T15:01:26.345Z,101241.40
2022-08-19T15:02:34.427Z,101241.70
2022-08-19T15:03:26.736Z,101241.45
2022-08-19T15:04:31.952Z,101241.52
2022-08-19T15:05:28.355Z,101241.52
2022-08-19T15:06:29.313Z,101241.05
2022-08-19T15:07:30.450Z,101241.41
2022-08-19T15:08:30.577Z,101241.52
2022-08-19T15:09:32.235Z,101241.05
2022-08-19T15:10:32.489Z,101241.77
2022-08-19T15:11:33.091Z,101242.38
2022-08-19T15:12:33.322Z,101243.52
2022-08-19T15:13:33.562Z,101244.46
2022-08-19T15:14:32.999Z,101245.48
2022-08-19T15:14:42.263Z,101260.11
2022-08-19T15:15:42.779Z,101253.70
2022-08-19T15:16:42.896Z,101253.50
2022-08-19T15:17:46.474Z,101253.72
2022-08-19T15:18:44.078Z,101254.40
2022-08-19T15:19:44.508Z,101255.04
2022-08-19T15:20:46.578Z,101255.23
2022-08-19T15:21:46.423Z,101255.35
2022-08-19T15:22:46.595Z,101256.09
2022-08-19T15:23:47.899Z,101256.39
2022-08-19T15:24:47.889Z,101257.45
2022-08-19T15:25:47.318Z,101256.97
2022-08-19T15:26:48.391Z,101257.09
2022-08-19T15:27:48.286Z,101257.32
2022-08-19T15:28:48.662Z,101257.66
2022-08-19T15:29:49.466Z,101258.38
2022-08-19T15:30:50.126Z,101258.72
2022-08-19T15:31:51.440Z,101258.66
2022-08-19T15:32:52.392Z,101259.19
2022-08-19T15:33:52.253Z,101259.38
2022-08-19T15:34:53.497Z,101259.83
2022-08-19T15:35:53.461Z,101260.72
2022-08-19T15:36:53.668Z,101261.19
2022-08-19T15:37:55.058Z,101261.75
2022-08-19T15:38:53.868Z,101261.97
2022-08-19T15:39:54.062Z,101262.05
2022-08-19T15:40:03.311Z,101266.19
2022-08-19T15:41:03.358Z,101265.39
2022-08-19T15:42:04.152Z,101264.67
2022-08-19T15:43:04.292Z,101264.23
2022-08-19T15:44:05.526Z,101263.86
2022-08-19T15:45:06.047Z,101263.87
2022-08-19T15:46:06.578Z,101264.31
2022-08-19T15:47:06.956Z,101263.91
2022-08-19T15:48:07.398Z,101264.09
2022-08-19T15:49:07.561Z,101263.91
2022-08-19T15:50:10.850Z,101263.39
2022-08-19T15:51:07.463Z,101262.92
2022-08-19T15:52:08.189Z,101263.03
2022-08-19T15:53:10.038Z,101262.38
2022-08-19T15:54:09.763Z,101261.20
2022-08-19T15:55:09.778Z,101261.22
2022-08-19T15:56:10.284Z,101260.75
2022-08-19T15:57:10.727Z,101260.34
2022-08-19T15:58:21.849Z,101260.28
2022-08-19T15:59:11.415Z,101260.47
2022-08-19T16:00:11.637Z,101259.78
2022-08-19T16:01:12.735Z,101260.28
2022-08-19T16:02:13.409Z,101261.03
2022-08-19T16:03:14.329Z,101261.39
2022-08-19T16:04:16.037Z,101261.20
2022-08-19T16:05:14.670Z,101261.59
2022-08-19T16:06:16.240Z,101262.23
2022-08-19T16:06:25.892Z,101274.45
2022-08-19T16:07:26.474Z,101269.12
2022-08-19T16:08:27.223Z,101269.23
2022-08-19T16:09:27.906Z,101268.70
2022-08-19T16:10:28.682Z,101268.47
2022-08-19T16:11:29.628Z,101268.25
2022-08-19T16:12:30.077Z,101268.30
2022-08-19T16:13:31.098Z,101267.60
2022-08-19T16:14:31.307Z,101267.47
2022-08-19T16:15:32.871Z,101267.19
2022-08-19T16:16:34.133Z,101267.47
2022-08-19T16:17:32.928Z,101267.47
2022-08-19T16:18:33.914Z,101266.92
2022-08-19T16:19:34.739Z,101266.62
2022-08-19T16:20:35.892Z,101266.69
2022-08-19T16:21:36.047Z,101266.84
2022-08-19T16:22:36.888Z,101266.64
2022-08-19T16:23:37.317Z,101266.64
2022-08-19T16:24:37.951Z,101266.78
2022-08-19T16:25:38.729Z,101267.14
2022-08-19T16:26:40.566Z,101266.87
2022-08-19T16:27:40.382Z,101267.05
2022-08-19T16:28:41.459Z,101267.71
2022-08-19T16:29:41.215Z,101267.92
2022-08-19T16:30:41.845Z,101267.86
2022-08-19T16:31:43.526Z,101267.69
2022-08-19T16:32:43.252Z,101267.48
2022-08-19T16:33:45.131Z,101267.59
2022-08-19T16:34:45.884Z,101267.80
2022-08-19T16:34:58.067Z,101266.10
2022-08-19T16:36:06.947Z,101263.67
2022-08-19T16:36:59.787Z,101263.50
2022-08-19T16:38:01.645Z,101263.33
2022-08-19T16:39:02.436Z,101263.08
2022-08-19T16:40:03.259Z,101263.22
2022-08-19T16:41:05.574Z,101262.91
2022-08-19T16:42:32.227Z,101269.40
2022-08-19T16:44:47.024Z,101262.49
2022-08-19T16:45:49.943Z,101263.64
2022-08-19T16:46:57.235Z,101263.36
2022-08-19T16:47:59.221Z,101263.12
2022-08-19T16:48:48.796Z,101263.36
2022-08-19T16:50:07.495Z,101263.22
2022-08-19T16:50:49.867Z,101263.70
2022-08-19T16:51:49.604Z,101263.95
2022-08-19T16:52:51.392Z,101264.36
2022-08-19T16:53:52.181Z,101264.67
2022-08-19T16:54:53.012Z,101264.84
2022-08-19T16:55:53.710Z,101264.98
2022-08-19T16:56:52.849Z,101264.56
2022-08-19T16:57:54.801Z,101265.22
2022-08-19T16:58:54.110Z,101265.59
2022-08-19T16:59:55.913Z,101266.11
2022-08-19T17:00:58.599Z,101267.04
2022-08-19T17:01:56.384Z,101267.11
2022-08-19T17:02:57.259Z,101267.70
2022-08-19T17:03:58.502Z,101268.34
2022-08-19T17:04:59.180Z,101268.48
2022-08-19T17:05:58.435Z,101268.73
2022-08-19T17:07:00.299Z,101268.90
2022-08-19T17:08:00.086Z,101269.45
2022-08-19T17:08:08.825Z,101278.06
2022-08-19T17:09:08.783Z,101272.03
2022-08-19T17:10:09.363Z,101272.03
2022-08-19T17:11:18.130Z,101272.62
2022-08-19T17:12:11.114Z,101272.62
2022-08-19T17:13:12.946Z,101273.59
2022-08-19T17:14:13.731Z,101274.63
2022-08-19T17:15:13.975Z,101274.94
2022-08-19T17:16:13.858Z,101274.94
2022-08-19T17:17:15.150Z,101275.56
2022-08-19T17:18:14.188Z,101276.16
2022-08-19T17:19:14.927Z,101277.37
2022-08-19T17:20:15.724Z,101278.14
2022-08-19T17:21:16.476Z,101278.50
2022-08-19T17:22:20.212Z,101278.95
2022-08-19T17:23:17.946Z,101278.99
2022-08-19T17:24:49.492Z,101298.47
2022-08-19T17:25:49.590Z,101296.35
2022-08-19T17:26:51.333Z,101295.83
2022-08-19T17:27:52.106Z,101296.33
2022-08-19T17:28:51.862Z,101296.42
2022-08-19T17:29:53.882Z,101296.84
2022-08-19T17:30:53.729Z,101296.81
2022-08-19T17:31:55.612Z,101297.16
2022-08-19T17:32:54.618Z,101296.97
2022-08-19T17:33:55.739Z,101297.70
2022-08-19T17:34:55.684Z,101297.91
2022-08-19T17:35:55.945Z,101298.26
2022-08-19T17:36:56.182Z,101299.06
2022-08-19T17:37:57.419Z,101299.30
2022-08-19T17:38:57.022Z,101300.00
2022-08-19T17:39:57.265Z,101300.59
2022-08-19T17:40:57.454Z,101300.88
2022-08-19T17:41:57.545Z,101301.67
2022-08-19T17:42:57.791Z,101302.06
2022-08-19T17:43:59.779Z,101302.45
2022-08-19T17:44:59.499Z,101303.53
2022-08-19T17:46:00.673Z,101304.19
2022-08-19T17:47:00.033Z,101304.50
2022-08-19T17:47:08.782Z,101325.51
2022-08-19T17:48:08.795Z,101320.30
2022-08-19T17:49:09.788Z,101319.75
2022-08-19T17:50:11.713Z,101319.40
2022-08-19T17:51:11.649Z,101319.67
2022-08-19T17:52:11.778Z,101319.22
2022-08-19T17:53:14.539Z,101319.53
2022-08-19T17:54:12.173Z,101319.24
2022-08-19T17:55:13.078Z,101319.58
2022-08-19T17:56:14.369Z,101319.16
2022-08-19T17:57:15.324Z,101318.92
2022-08-19T17:58:14.359Z,101319.37
2022-08-19T17:59:14.584Z,101319.88
2022-08-19T18:00:14.490Z,101320.16
2022-08-19T18:01:15.424Z,101320.30
2022-08-19T18:02:16.040Z,101320.53
2022-08-19T18:03:16.733Z,101321.50
2022-08-19T18:04:16.976Z,101321.70
2022-08-19T18:05:19.520Z,101322.14
2022-08-19T18:06:17.629Z,101321.83
2022-08-19T18:07:17.797Z,101322.38
2022-08-19T18:08:18.108Z,101323.33
2022-08-19T18:09:18.955Z,101323.19
2022-08-19T18:10:19.701Z,101323.80
2022-08-19T18:11:21.001Z,101324.45
2022-08-19T18:12:20.163Z,101325.10
2022-08-19T18:13:21.458Z,101326.48
2022-08-19T18:14:20.561Z,101327.06
2022-08-19T18:14:33.779Z,101347.14
2022-08-19T18:15:30.338Z,101347.45
2022-08-19T18:16:31.099Z,101346.65
2022-08-19T18:17:32.712Z,101346.68
2022-08-19T18:18:32.309Z,101346.98
2022-08-19T18:19:41.283Z,101346.77
2022-08-19T18:20:33.861Z,101347.28
2022-08-19T18:21:33.854Z,101347.03
2022-08-19T18:22:34.872Z,101347.33
2022-08-19T18:23:44.676Z,101347.31
2022-08-19T18:24:35.822Z,101348.02
2022-08-19T18:25:36.945Z,101348.32
2022-08-19T18:26:36.291Z,101348.82
2022-08-19T18:27:36.581Z,101349.19
2022-08-19T18:28:37.298Z,101349.55
2022-08-19T18:29:39.213Z,101350.09
2022-08-19T18:30:38.605Z,101351.16
2022-08-19T18:31:39.302Z,101352.00
2022-08-19T18:32:40.046Z,101353.06
2022-08-19T18:33:44.033Z,101353.67
2022-08-19T18:34:40.358Z,101354.11
2022-08-19T18:35:40.575Z,101354.55
2022-08-19T18:36:53.477Z,101354.98
2022-08-19T18:37:41.549Z,101355.97
2022-08-19T18:38:44.203Z,101356.84
2022-08-19T18:39:45.123Z,101357.69
2022-08-19T18:40:43.010Z,101358.50
2022-08-19T18:41:43.102Z,101360.08
2022-08-19T18:42:54.191Z,101383.14
2022-08-19T18:43:54.264Z,101377.43
2022-08-19T18:44:59.214Z,101377.64
2022-08-19T18:45:54.610Z,101377.38
2022-08-19T18:46:55.135Z,101377.20
2022-08-19T18:47:55.584Z,101377.78
2022-08-19T18:48:56.014Z,101378.13
2022-08-19T18:49:56.211Z,101378.33
2022-08-19T18:50:56.301Z,101379.09
2022-08-19T18:51:56.515Z,101379.98
2022-08-19T18:52:58.181Z,101380.77
2022-08-19T18:53:57.768Z,101381.41
2022-08-19T18:54:57.782Z,101382.75
2022-08-19T18:55:58.405Z,101383.19
2022-08-19T18:56:58.477Z,101384.11
2022-08-19T18:57:59.224Z,101385.07
2022-08-19T18:59:01.680Z,101386.09
2022-08-19T19:00:03.472Z,101387.69
2022-08-19T19:01:00.714Z,101388.64
2022-08-19T19:02:00.988Z,101389.91
2022-08-19T19:03:02.334Z,101390.61
2022-08-19T19:04:01.414Z,101391.73
2022-08-19T19:05:06.447Z,101393.13
2022-08-19T19:06:02.202Z,101393.98
2022-08-19T19:07:02.588Z,101394.96
2022-08-19T19:08:02.829Z,101396.25
2022-08-19T19:09:04.220Z,101397.38
2022-08-19T19:10:04.063Z,101398.39
2022-08-19T19:10:18.842Z,101414.77
2022-08-19T19:11:19.175Z,101411.02
2022-08-19T19:12:19.169Z,101411.12
2022-08-19T19:13:21.203Z,101411.36
2022-08-19T19:14:39.013Z,101411.58
2022-08-19T19:15:20.585Z,101411.82
2022-08-19T19:16:24.648Z,101411.99
2022-08-19T19:17:21.617Z,101411.99
2022-08-19T19:18:22.602Z,101412.92
2022-08-19T19:19:24.348Z,101413.03
2022-08-19T19:20:25.950Z,101413.13
2022-08-19T19:21:23.820Z,101413.99
2022-08-19T19:22:26.767Z,101414.69
2022-08-19T19:23:26.534Z,101415.34
2022-08-19T19:24:26.570Z,101415.78
2022-08-19T19:24:41.309Z,101424.83
2022-08-19T19:25:44.782Z,101429.84
2022-08-19T19:26:40.690Z,101430.13
2022-08-19T19:27:41.272Z,101430.81
2022-08-19T19:28:41.884Z,101430.80
2022-08-19T19:29:42.562Z,101430.89
2022-08-19T19:30:43.569Z,101431.32
2022-08-19T19:31:45.173Z,101431.30
2022-08-19T19:32:44.681Z,101431.22
2022-08-19T19:33:48.542Z,101431.72
2022-08-19T19:34:48.581Z,101431.91
2022-08-19T19:35:47.273Z,101432.59
2022-08-19T19:36:46.642Z,101433.17
2022-08-19T19:37:47.011Z,101433.82
2022-08-19T19:38:49.081Z,101434.67
2022-08-19T19:39:48.304Z,101435.00
2022-08-19T19:40:48.929Z,101435.41
2022-08-19T19:42:06.599Z,101447.14
2022-08-19T19:43:08.040Z,101443.87
2022-08-19T19:44:30.221Z,101443.63
2022-08-19T19:45:07.734Z,101444.08
2022-08-19T19:46:10.493Z,101444.06
2022-08-19T19:47:09.145Z,101444.39
2022-08-19T19:48:10.098Z,101444.48
2022-08-19T19:49:10.385Z,101444.81
2022-08-19T19:50:14.775Z,101445.25
2022-08-19T19:51:13.667Z,101445.44
2022-08-19T19:52:13.832Z,101446.22
2022-08-19T19:53:12.972Z,101446.48
2022-08-19T19:54:23.552Z,101446.42
2022-08-19T19:55:14.584Z,101446.55
2022-08-19T19:56:17.204Z,101446.72
2022-08-19T19:57:18.801Z,101447.39
2022-08-19T19:58:15.827Z,101447.73
2022-08-19T19:58:38.984Z,101454.02
2022-08-19T19:59:39.280Z,101453.81
2022-08-19T20:00:40.270Z,101453.23
2022-08-19T20:01:41.103Z,101453.30
2022-08-19T20:02:58.543Z,101453.52
2022-08-19T20:03:44.989Z,101453.86
2022-08-19T20:04:44.115Z,101454.34
2022-08-19T20:05:45.423Z,101454.68
2022-08-19T20:06:43.281Z,101454.68
2022-08-19T20:07:43.438Z,101455.38
2022-08-19T20:08:43.369Z,101455.47
2022-08-19T20:09:59.162Z,101455.98
2022-08-19T20:10:44.352Z,101456.33
2022-08-19T20:12:01.787Z,101456.51
2022-08-19T20:12:44.709Z,101456.56
2022-08-19T20:13:45.658Z,101456.66
2022-08-19T20:14:49.691Z,101457.11
2022-08-19T20:15:46.745Z,101457.44
2022-08-19T20:16:00.899Z,101468.31
2022-08-19T20:17:01.110Z,101457.08
2022-08-19T20:18:01.979Z,101457.77
2022-08-19T20:19:03.395Z,101458.04
2022-08-19T20:20:03.683Z,101458.45
2022-08-19T20:21:04.116Z,101458.30
2022-08-19T20:22:05.124Z,101458.36
2022-08-19T20:23:05.300Z,101458.34
2022-08-19T20:24:10.299Z,101458.67
2022-08-19T20:25:06.270Z,101458.45
2022-08-19T20:26:06.551Z,101458.27
2022-08-19T20:27:06.640Z,101458.33
2022-08-19T20:28:07.456Z,101458.88
2022-08-19T20:29:13.453Z,101459.11
2022-08-19T20:30:08.268Z,101460.00
2022-08-19T20:31:08.989Z,101459.98
2022-08-19T20:32:09.682Z,101460.56
2022-08-19T20:32:20.526Z,101469.81
2022-08-19T20:33:21.134Z,101467.34
2022-08-19T20:34:21.914Z,101467.52
2022-08-19T20:35:24.229Z,101467.52
2022-08-19T20:36:24.045Z,101467.52
2022-08-19T20:37:23.253Z,101468.28
2022-08-19T20:38:23.720Z,101468.70
2022-08-19T20:39:24.390Z,101469.28
2022-08-19T20:40:24.528Z,101470.09
2022-08-19T20:41:25.176Z,101470.23
2022-08-19T20:42:27.138Z,101470.70
2022-08-19T20:43:26.524Z,101470.70
2022-08-19T20:44:27.033Z,101471.11
2022-08-19T20:45:33.693Z,101471.63
2022-08-19T20:46:28.048Z,101472.02
2022-08-19T20:47:28.855Z,101471.67
2022-08-19T20:48:29.105Z,101472.26
2022-08-19T20:49:30.003Z,101472.43
2022-08-19T20:50:30.637Z,101472.14
2022-08-19T20:51:31.039Z,101472.94
2022-08-19T20:52:32.843Z,101473.34
2022-08-19T20:53:32.110Z,101474.05
2022-08-19T20:54:32.396Z,101473.80
2022-08-19T20:55:32.997Z,101474.64
2022-08-19T20:56:33.828Z,101474.66
2022-08-19T20:57:34.031Z,101475.39
2022-08-19T20:57:44.650Z,101487.72
2022-08-19T20:58:46.866Z,101478.92
2022-08-19T20:59:45.939Z,101478.89
2022-08-19T21:00:45.468Z,101478.71
2022-08-19T21:01:45.554Z,101478.75
2022-08-19T21:02:45.697Z,101479.09
2022-08-19T21:03:46.340Z,101480.13
2022-08-19T21:04:47.121Z,101480.19
2022-08-19T21:05:47.061Z,101480.42
2022-08-19T21:06:47.683Z,101480.45
2022-08-19T21:07:48.464Z,101481.06
2022-08-19T21:08:49.308Z,101481.54
2022-08-19T21:09:49.927Z,101481.37
2022-08-19T21:10:50.036Z,101481.22
2022-08-19T21:11:50.681Z,101481.03
2022-08-19T21:12:50.885Z,101480.84
2022-08-19T21:13:51.134Z,101480.83
2022-08-19T21:14:51.940Z,101481.03
2022-08-19T21:15:51.912Z,101480.42
2022-08-19T21:16:52.266Z,101480.66
2022-08-19T21:17:53.046Z,101479.95
2022-08-19T21:18:53.699Z,101479.56
2022-08-19T21:19:53.698Z,101479.72
2022-08-19T21:20:54.155Z,101479.45
2022-08-19T21:21:54.124Z,101479.50
2022-08-19T21:22:54.593Z,101479.41
2022-08-19T21:23:54.762Z,101479.19
2022-08-19T21:24:55.666Z,101479.34
2022-08-19T21:25:05.473Z,101479.95
2022-08-19T21:26:06.090Z,101483.03
2022-08-19T21:27:06.372Z,101482.75
2022-08-19T21:28:06.657Z,101482.41
2022-08-19T21:29:07.301Z,101482.19
2022-08-19T21:30:07.645Z,101482.54
2022-08-19T21:31:09.463Z,101482.91
2022-08-19T21:32:10.162Z,101483.06
2022-08-19T21:33:09.360Z,101483.44
2022-08-19T21:34:10.877Z,101483.56
2022-08-19T21:35:10.236Z,101483.56
2022-08-19T21:36:10.452Z,101484.47
2022-08-19T21:37:17.498Z,101484.42
2022-08-19T21:38:11.398Z,101484.94
2022-08-19T21:39:12.141Z,101485.45
2022-08-19T21:40:12.851Z,101485.73
2022-08-19T21:41:13.358Z,101486.34
2022-08-19T21:42:14.682Z,101486.65
2022-08-19T21:43:13.704Z,101487.42
2022-08-19T21:44:13.775Z,101488.61
2022-08-19T21:45:15.625Z,101489.11
2022-08-19T21:46:15.099Z,101489.58
2022-08-19T21:47:16.443Z,101490.16
2022-08-19T21:48:15.983Z,101490.56
2022-08-19T21:49:17.729Z,101490.51
2022-08-19T21:50:17.926Z,101490.66
2022-08-19T21:50:28.692Z,101500.52
2022-08-19T21:51:27.337Z,101504.70
2022-08-19T21:52:27.822Z,101504.45
2022-08-19T21:53:31.628Z,101504.28
2022-08-19T21:54:29.311Z,101504.36
2022-08-19T21:55:29.815Z,101503.84
2022-08-19T21:56:31.119Z,101503.67
2022-08-19T21:57:31.618Z,101503.67